KSLB/SLB METAR and TAF weather

Enter ICAO airport designator
Station Type Date Time Source
KSLB METAR 2018/12/12 08:35 UTC NOAA

KSLB 120835Z AUTO 28011KT 10SM FEW034 SCT043 BKN050 M08/M08 A2973 RMK AO2


Station Type Date Time Source
KSLB Decoded METAR 2018/12/12 08:35 UTC NOAA

Storm Lake, IA, United States (KSLB) 42-36N 095-14W
Dec 12, 2018 - 03:35 AM EST / 2018.12.12 0835 UTC
Wind: from the W (280 degrees) at 13 MPH (11 KT):0
Visibility: 10 mile(s):0
Sky conditions: mostly cloudy
Temperature: 17 F (-8 C)
Windchill: 3 F (-16 C):1
Dew Point: 17 F (-8 C)
Relative Humidity: 100%
Pressure (altimeter): 29.73 in. Hg (1006 hPa)
ob: KSLB 120835Z AUTO 28011KT 10SM FEW034 SCT043 BKN050 M08/M08 A2973 RMK AO2
cycle: 8

Station Type Date Time Source
KSLB TAF UTC NOAA

Error!


Example: see airport list